createdAt,value
2023-04-20T00:00:31.230Z,71.30
2023-04-20T00:02:59.554Z,70.90
2023-04-20T00:05:27.378Z,70.80
2023-04-20T00:07:55.082Z,70.40
2023-04-20T00:10:22.699Z,72.20
2023-04-20T00:12:50.636Z,72.40
2023-04-20T00:15:18.254Z,70.70
2023-04-20T00:17:46.811Z,71.70
2023-04-20T00:20:15.563Z,70.30
2023-04-20T00:22:43.261Z,70.30
2023-04-20T00:25:10.979Z,70.60
2023-04-20T00:27:38.600Z,70.70
2023-04-20T00:30:06.576Z,71.80
2023-04-20T00:32:35.132Z,70.40
2023-04-20T00:35:03.627Z,70.60
2023-04-20T00:37:31.221Z,70.50
2023-04-20T00:39:58.813Z,70.70
2023-04-20T00:42:26.414Z,70.50
2023-04-20T00:44:53.961Z,71.80
2023-04-20T00:47:21.647Z,70.90
2023-04-20T00:49:49.247Z,70.80
2023-04-20T00:52:17.074Z,71.90
2023-04-20T00:55:35.621Z,70.50
2023-04-20T00:58:14.304Z,70.30
2023-04-20T01:00:42.287Z,70.40
2023-04-20T01:03:10.851Z,70.70
2023-04-20T01:05:38.721Z,71.60
2023-04-20T01:08:07.239Z,70.20
2023-04-20T01:10:34.824Z,70.00
2023-04-20T01:13:03.569Z,70.30
2023-04-20T01:15:31.320Z,70.20
2023-04-20T01:17:59.040Z,70.00
2023-04-20T01:20:27.034Z,70.40
2023-04-20T01:22:54.916Z,69.90
2023-04-20T01:25:24.395Z,69.90
2023-04-20T01:27:55.030Z,69.80
2023-04-20T01:30:22.849Z,69.70
2023-04-20T01:32:50.808Z,69.90
2023-04-20T01:35:18.437Z,69.70
2023-04-20T01:37:46.631Z,69.90
2023-04-20T01:40:14.843Z,70.70
2023-04-20T01:42:42.410Z,70.90
2023-04-20T01:45:10.210Z,70.20
2023-04-20T01:47:37.902Z,69.80
2023-04-20T01:50:05.912Z,69.90
2023-04-20T01:55:00.926Z,69.60
2023-04-20T01:57:29.358Z,70.30
2023-04-20T01:59:56.950Z,69.50
2023-04-20T02:02:24.708Z,69.30
2023-04-20T02:04:53.740Z,69.40
2023-04-20T02:07:21.390Z,68.90
2023-04-20T02:09:54.643Z,68.90
2023-04-20T02:12:22.264Z,68.90
2023-04-20T02:14:49.901Z,68.80
2023-04-20T02:17:17.510Z,68.70
2023-04-20T02:19:45.283Z,68.50
2023-04-20T02:22:15.959Z,68.50
2023-04-20T02:24:44.007Z,68.40
2023-04-20T02:27:12.095Z,68.20
2023-04-20T02:29:39.987Z,68.00
2023-04-20T02:32:08.350Z,67.80
2023-04-20T02:34:35.966Z,67.80
2023-04-20T02:37:03.677Z,67.60
2023-04-20T02:39:31.421Z,67.40
2023-04-20T02:41:59.082Z,67.40
2023-04-20T02:44:26.632Z,67.30
2023-04-20T02:47:03.977Z,66.80
2023-04-20T02:52:08.482Z,66.60
2023-04-20T02:54:36.254Z,66.30
2023-04-20T02:58:02.718Z,66.20
2023-04-20T03:00:30.372Z,65.80
2023-04-20T03:02:58.097Z,65.00
2023-04-20T03:07:55.268Z,64.80
2023-04-20T03:10:22.923Z,64.80
2023-04-20T03:12:50.683Z,64.80
2023-04-20T03:15:30.158Z,64.70
2023-04-20T03:17:57.843Z,64.10
2023-04-20T03:20:25.678Z,64.40
2023-04-20T03:22:53.310Z,63.90
2023-04-20T03:25:21.086Z,64.20
2023-04-20T03:27:49.005Z,64.00
2023-04-20T03:30:17.085Z,63.90
2023-04-20T03:32:45.554Z,63.40
2023-04-20T03:35:14.074Z,63.50
2023-04-20T03:37:41.645Z,63.40
2023-04-20T03:40:09.770Z,63.40
2023-04-20T03:42:42.256Z,63.30
2023-04-20T03:47:48.456Z,63.30
2023-04-20T03:50:17.429Z,62.50
2023-04-20T03:52:45.055Z,63.00
2023-04-20T03:55:12.664Z,61.30
2023-04-20T03:57:41.139Z,61.40
2023-04-20T04:00:11.173Z,61.30
2023-04-20T04:02:39.338Z,61.80
2023-04-20T04:05:10.410Z,61.90
2023-04-20T04:07:38.157Z,62.00
2023-04-20T04:10:06.586Z,61.30
2023-04-20T04:12:34.172Z,61.70
2023-04-20T04:15:01.852Z,61.60
2023-04-20T04:17:29.930Z,61.30
2023-04-20T04:19:57.694Z,60.30
2023-04-20T04:22:25.579Z,60.40
2023-04-20T04:24:54.675Z,61.10
2023-04-20T04:27:23.382Z,61.30
2023-04-20T04:29:52.329Z,60.00
2023-04-20T04:32:20.932Z,60.30
2023-04-20T04:34:49.148Z,60.90
2023-04-20T04:37:20.077Z,60.50
2023-04-20T04:39:48.006Z,60.10
2023-04-20T04:42:16.366Z,60.60
2023-04-20T04:44:44.273Z,60.70
2023-04-20T04:47:17.740Z,60.70
2023-04-20T04:49:46.124Z,60.90
2023-04-20T04:52:13.757Z,60.70
2023-04-20T04:54:42.064Z,60.00
2023-04-20T04:57:09.938Z,59.60
2023-04-20T04:59:37.733Z,59.70
2023-04-20T05:02:05.474Z,60.30
2023-04-20T05:04:33.423Z,60.20
2023-04-20T05:07:01.294Z,59.90
2023-04-20T05:09:33.666Z,60.30
2023-04-20T05:12:05.081Z,59.60
2023-04-20T05:14:33.225Z,60.20
2023-04-20T05:19:37.131Z,59.60
2023-04-20T05:22:05.726Z,58.60
2023-04-20T05:24:33.388Z,59.30
2023-04-20T05:27:04.108Z,59.00
2023-04-20T05:29:35.878Z,58.50
2023-04-20T05:32:10.079Z,59.20
2023-04-20T05:34:38.736Z,58.60
2023-04-20T05:37:06.679Z,58.60
2023-04-20T05:39:34.724Z,58.50
2023-04-20T05:42:03.588Z,58.40
2023-04-20T05:44:31.465Z,58.20
2023-04-20T05:46:59.575Z,57.90
2023-04-20T05:49:30.153Z,58.60
2023-04-20T05:51:58.708Z,58.70
2023-04-20T05:54:31.814Z,58.90
2023-04-20T05:56:59.412Z,57.50
2023-04-20T05:59:28.248Z,57.30
2023-04-20T06:01:59.064Z,58.30
2023-04-20T06:04:27.082Z,57.80
2023-04-20T06:06:55.040Z,58.50
2023-04-20T06:09:22.715Z,58.40
2023-04-20T06:11:50.448Z,58.50
2023-04-20T06:16:51.256Z,57.30
2023-04-20T06:19:18.973Z,58.50
2023-04-20T06:21:46.759Z,57.90
2023-04-20T06:24:15.238Z,57.10
2023-04-20T06:26:42.962Z,58.10
2023-04-20T06:29:10.517Z,57.00
2023-04-20T06:31:39.007Z,55.30
2023-04-20T06:34:06.675Z,56.30
2023-04-20T06:36:35.116Z,56.10
2023-04-20T06:39:02.721Z,56.90
2023-04-20T06:41:30.352Z,56.80
2023-04-20T06:43:58.032Z,56.80
2023-04-20T06:46:25.714Z,56.20
2023-04-20T06:48:54.269Z,56.60
2023-04-20T06:51:48.374Z,56.70
2023-04-20T06:54:10.683Z,56.10
2023-04-20T06:56:39.860Z,56.20
2023-04-20T06:59:07.525Z,55.40
2023-04-20T07:01:35.684Z,56.80
2023-04-20T07:04:03.507Z,56.80
2023-04-20T07:06:32.349Z,56.50
2023-04-20T07:09:00.067Z,56.90
2023-04-20T07:11:29.021Z,55.70
2023-04-20T07:13:58.979Z,56.70
2023-04-20T07:16:26.851Z,56.20
2023-04-20T07:18:55.207Z,56.30
2023-04-20T07:21:22.797Z,55.90
2023-04-20T07:23:51.314Z,54.50
2023-04-20T07:26:19.005Z,56.20
2023-04-20T07:28:47.454Z,56.40
2023-04-20T07:31:15.189Z,55.80
2023-04-20T07:33:45.556Z,55.80
2023-04-20T07:36:13.273Z,55.30
2023-04-20T07:38:40.879Z,55.60
2023-04-20T07:41:11.448Z,54.90
2023-04-20T07:43:42.189Z,55.20
2023-04-20T07:46:09.898Z,55.20
2023-04-20T07:48:38.026Z,55.00
2023-04-20T07:51:05.661Z,54.80
2023-04-20T07:53:36.219Z,55.80
2023-04-20T07:56:03.954Z,55.60
2023-04-20T07:58:31.652Z,55.30
2023-04-20T08:00:59.287Z,54.70
2023-04-20T08:03:27.789Z,55.40
2023-04-20T08:05:56.683Z,54.50
2023-04-20T08:08:24.413Z,53.30
2023-04-20T08:10:52.060Z,54.70
2023-04-20T08:13:19.637Z,55.20
2023-04-20T08:15:49.442Z,54.70
2023-04-20T08:18:17.196Z,54.00
2023-04-20T08:20:46.764Z,54.60
2023-04-20T08:23:14.788Z,54.80
2023-04-20T08:25:44.933Z,54.50
2023-04-20T08:28:19.548Z,54.20
2023-04-20T08:30:57.332Z,55.30
2023-04-20T08:33:25.020Z,55.10
2023-04-20T08:35:52.962Z,53.70
2023-04-20T08:38:32.948Z,54.60
2023-04-20T08:41:01.916Z,54.10
2023-04-20T08:43:30.424Z,55.00
2023-04-20T08:45:59.959Z,54.50
2023-04-20T08:48:33.731Z,53.90
2023-04-20T08:51:02.408Z,55.10
2023-04-20T08:53:30.381Z,54.70
2023-04-20T08:55:58.341Z,54.70
2023-04-20T08:58:32.801Z,54.40
2023-04-20T09:01:03.461Z,54.60
2023-04-20T09:03:35.996Z,54.70
2023-04-20T09:06:10.634Z,54.30
2023-04-20T09:08:39.839Z,54.70
2023-04-20T09:11:07.814Z,54.60
2023-04-20T09:13:35.922Z,54.40
2023-04-20T09:16:14.025Z,54.80
2023-04-20T09:18:51.926Z,53.90
2023-04-20T09:21:20.935Z,53.80
2023-04-20T09:24:15.576Z,54.30
2023-04-20T09:26:46.977Z,54.70
2023-04-20T09:29:23.693Z,54.00
2023-04-20T09:31:52.216Z,53.30
2023-04-20T09:34:21.330Z,54.70
2023-04-20T09:42:22.738Z,54.60
2023-04-20T09:44:53.910Z,53.40
2023-04-20T09:47:22.782Z,54.20
2023-04-20T09:49:51.930Z,54.50
2023-04-20T09:52:19.891Z,53.90
2023-04-20T09:54:47.529Z,55.20
2023-04-20T09:57:15.284Z,54.20
2023-04-20T09:59:43.989Z,54.40
2023-04-20T10:02:13.464Z,54.60
2023-04-20T10:04:58.964Z,54.10
2023-04-20T10:07:27.664Z,53.90
2023-04-20T10:10:05.550Z,54.40
2023-04-20T10:12:33.530Z,54.10
2023-04-20T10:15:01.788Z,53.90
2023-04-20T10:17:34.023Z,54.60
2023-04-20T10:20:02.252Z,54.60
2023-04-20T10:22:33.834Z,54.90
2023-04-20T10:25:15.646Z,54.60
2023-04-20T10:27:53.615Z,54.50
2023-04-20T10:30:21.992Z,54.80
2023-04-20T10:32:49.727Z,54.60
2023-04-20T10:35:17.813Z,54.20
2023-04-20T10:37:52.005Z,54.50
2023-04-20T10:40:28.314Z,54.70
2023-04-20T10:42:56.037Z,54.30
2023-04-20T10:45:34.169Z,54.40
2023-04-20T10:48:07.733Z,54.60
2023-04-20T10:50:36.351Z,54.90
2023-04-20T10:53:05.714Z,54.60
2023-04-20T10:55:34.629Z,54.80
2023-04-20T10:58:02.312Z,54.90
2023-04-20T11:00:32.126Z,54.90
2023-04-20T11:02:59.885Z,55.20
2023-04-20T11:05:28.100Z,55.20
2023-04-20T11:07:56.561Z,55.20
2023-04-20T11:10:26.382Z,55.60
2023-04-20T11:12:54.790Z,55.50
2023-04-20T11:15:31.789Z,55.40
2023-04-20T11:18:09.127Z,55.60
2023-04-20T11:20:36.961Z,55.70
2023-04-20T11:23:06.207Z,55.50
2023-04-20T11:25:33.864Z,55.50
2023-04-20T11:28:12.062Z,55.50
2023-04-20T11:30:41.479Z,55.60
2023-04-20T11:33:09.542Z,55.40
2023-04-20T11:35:38.550Z,55.40
2023-04-20T11:38:06.441Z,55.70
2023-04-20T11:40:34.264Z,55.70
2023-04-20T11:43:02.695Z,56.60
2023-04-20T11:45:34.385Z,55.40
2023-04-20T11:48:03.733Z,55.30
2023-04-20T11:50:32.169Z,55.30
2023-04-20T11:52:59.733Z,55.60
2023-04-20T11:55:30.117Z,55.50
2023-04-20T11:57:57.997Z,55.30
2023-04-20T12:00:26.124Z,55.40
2023-04-20T12:02:53.846Z,55.00
2023-04-20T12:05:21.712Z,55.20
2023-04-20T12:07:49.336Z,55.20
2023-04-20T12:10:16.991Z,54.60
2023-04-20T12:12:44.635Z,55.50
2023-04-20T12:15:12.842Z,55.70
2023-04-20T12:17:40.529Z,55.30
2023-04-20T12:20:09.097Z,55.20
2023-04-20T12:22:36.740Z,55.60
2023-04-20T12:25:04.662Z,55.20
2023-04-20T12:27:32.266Z,55.60
2023-04-20T12:29:59.837Z,55.40
2023-04-20T12:32:27.581Z,55.00
2023-04-20T12:34:55.192Z,55.30
2023-04-20T12:37:22.860Z,55.00
2023-04-20T12:39:51.305Z,54.90
2023-04-20T12:42:23.027Z,55.10
2023-04-20T12:44:53.261Z,55.10
2023-04-20T12:47:21.009Z,55.30
2023-04-20T12:49:48.758Z,55.60
2023-04-20T12:52:16.548Z,55.80
2023-04-20T12:54:44.965Z,55.80
2023-04-20T12:57:13.360Z,55.80
2023-04-20T12:59:41.768Z,55.80
2023-04-20T13:02:09.710Z,55.80
2023-04-20T13:04:37.527Z,55.90
2023-04-20T13:07:05.297Z,56.00
2023-04-20T13:09:33.016Z,56.10
2023-04-20T13:12:00.626Z,56.20
2023-04-20T13:14:28.224Z,56.30
2023-04-20T13:16:55.998Z,56.40
2023-04-20T13:19:23.871Z,56.50
2023-04-20T13:21:51.940Z,56.60
2023-04-20T13:24:19.802Z,56.70
2023-04-20T13:26:47.498Z,56.70
2023-04-20T13:29:15.640Z,56.80
2023-04-20T13:31:43.251Z,57.00
2023-04-20T13:34:10.984Z,57.00
2023-04-20T13:36:38.718Z,56.90
2023-04-20T13:39:06.380Z,57.50
2023-04-20T13:41:33.936Z,57.10
2023-04-20T13:44:01.951Z,57.10
2023-04-20T13:46:30.777Z,57.20
2023-04-20T13:48:58.391Z,57.20
2023-04-20T13:51:27.355Z,57.30
2023-04-20T13:53:54.957Z,57.40
2023-04-20T13:56:22.511Z,58.00
2023-04-20T13:58:50.115Z,57.50
2023-04-20T14:01:17.764Z,57.50
2023-04-20T14:03:45.559Z,57.60
2023-04-20T14:06:13.348Z,57.70
2023-04-20T14:08:40.973Z,57.90
2023-04-20T14:11:08.553Z,57.90
2023-04-20T14:13:36.194Z,57.90
2023-04-20T14:16:09.564Z,57.90
2023-04-20T14:18:37.344Z,58.10
2023-04-20T14:21:05.144Z,58.20
2023-04-20T14:23:32.711Z,58.20
2023-04-20T14:26:00.528Z,58.30
2023-04-20T14:28:28.272Z,58.40
2023-04-20T14:30:56.710Z,58.50
2023-04-20T14:33:24.316Z,58.60
2023-04-20T14:35:52.001Z,58.70
2023-04-20T14:38:19.584Z,58.80
2023-04-20T14:40:47.911Z,58.80
2023-04-20T14:43:15.673Z,58.70
2023-04-20T14:45:44.986Z,58.80
2023-04-20T14:48:13.097Z,58.70
2023-04-20T14:50:40.814Z,58.80
2023-04-20T14:53:08.382Z,58.80
2023-04-20T14:55:35.994Z,58.80
2023-04-20T14:58:03.751Z,58.80
2023-04-20T15:00:31.406Z,58.70
2023-04-20T15:03:00.721Z,58.70
2023-04-20T15:05:28.795Z,58.70
2023-04-20T15:07:58.319Z,58.80
2023-04-20T15:10:25.984Z,58.70
2023-04-20T15:12:53.587Z,58.80
2023-04-20T15:15:21.250Z,58.80
2023-04-20T15:17:50.403Z,58.80
2023-04-20T15:20:19.439Z,58.80
2023-04-20T15:22:47.098Z,58.80
2023-04-20T15:25:14.896Z,58.80
2023-04-20T15:27:43.903Z,58.80
2023-04-20T15:30:12.036Z,58.80
2023-04-20T15:32:40.425Z,58.80
2023-04-20T15:35:08.163Z,58.70
2023-04-20T15:37:35.834Z,58.80
2023-04-20T15:40:04.299Z,58.80
2023-04-20T15:42:32.670Z,58.70
2023-04-20T15:45:00.253Z,58.80
2023-04-20T15:47:27.866Z,58.80
2023-04-20T15:50:01.663Z,58.80
2023-04-20T15:52:30.005Z,58.80
2023-04-20T15:54:57.973Z,58.90
2023-04-20T15:57:25.539Z,58.90
2023-04-20T15:59:53.113Z,58.90
2023-04-20T16:02:20.811Z,59.00
2023-04-20T16:04:48.661Z,59.00
2023-04-20T16:07:18.128Z,59.00
2023-04-20T16:09:45.742Z,60.00
2023-04-20T16:12:13.670Z,59.60
2023-04-20T16:14:41.261Z,59.70
2023-04-20T16:17:09.626Z,60.10
2023-04-20T16:19:37.817Z,60.70
2023-04-20T16:22:05.364Z,60.00
2023-04-20T16:24:32.997Z,60.00
2023-04-20T16:27:01.771Z,60.60
2023-04-20T16:29:29.340Z,60.20
2023-04-20T16:31:56.892Z,60.00
2023-04-20T16:34:24.752Z,60.20
2023-04-20T16:36:53.064Z,60.00
2023-04-20T16:39:20.669Z,60.00
2023-04-20T16:41:48.311Z,60.10
2023-04-20T16:44:17.548Z,60.00
2023-04-20T16:46:46.179Z,59.90
2023-04-20T16:49:13.747Z,59.80
2023-04-20T16:51:41.355Z,59.80
2023-04-20T16:54:10.722Z,59.60
2023-04-20T16:56:38.849Z,59.70
2023-04-20T16:59:06.934Z,59.60
2023-04-20T17:01:35.506Z,59.50
2023-04-20T17:04:03.292Z,59.40
2023-04-20T17:06:31.802Z,59.20
2023-04-20T17:09:06.005Z,59.10
2023-04-20T17:11:38.813Z,59.20
2023-04-20T17:14:07.492Z,59.20
2023-04-20T17:16:36.228Z,59.20
2023-04-20T17:19:05.602Z,59.20
2023-04-20T17:21:33.377Z,59.20
2023-04-20T17:24:00.953Z,59.20
2023-04-20T17:26:28.557Z,59.10
2023-04-20T17:29:00.377Z,59.10
2023-04-20T17:31:27.919Z,59.20
2023-04-20T17:33:56.028Z,59.20
2023-04-20T17:36:24.337Z,59.30
2023-04-20T17:38:51.975Z,59.20
2023-04-20T17:41:20.299Z,59.20
2023-04-20T17:43:48.834Z,59.30
2023-04-20T17:46:17.303Z,59.40
2023-04-20T17:48:44.931Z,59.50
2023-04-20T17:51:15.342Z,59.50
2023-04-20T17:53:42.947Z,59.40
2023-04-20T17:56:11.061Z,59.40
2023-04-20T17:58:38.660Z,59.50
2023-04-20T18:01:06.414Z,59.50
2023-04-20T18:03:34.191Z,59.60
2023-04-20T18:06:02.798Z,59.60
2023-04-20T18:08:30.459Z,59.70
2023-04-20T18:10:58.019Z,59.60
2023-04-20T18:13:27.322Z,59.60
2023-04-20T18:15:54.930Z,59.70
2023-04-20T18:18:22.540Z,59.80
2023-04-20T18:20:50.855Z,60.00
2023-04-20T18:23:19.350Z,60.00
2023-04-20T18:25:47.701Z,60.00
2023-04-20T18:28:15.635Z,60.00
2023-04-20T18:30:43.663Z,60.20
2023-04-20T18:33:12.366Z,60.20
2023-04-20T18:35:40.008Z,60.20
2023-04-20T18:38:09.091Z,60.20
2023-04-20T18:40:36.637Z,60.30
2023-04-20T18:43:04.204Z,60.30
2023-04-20T18:45:31.845Z,60.50
2023-04-20T18:47:59.516Z,60.80
2023-04-20T18:50:27.131Z,61.00
2023-04-20T18:52:55.537Z,60.90
2023-04-20T18:55:23.988Z,61.00
2023-04-20T18:57:51.520Z,61.30
2023-04-20T19:00:19.989Z,61.40
2023-04-20T19:02:47.654Z,61.50
2023-04-20T19:05:15.323Z,61.20
2023-04-20T19:07:43.754Z,61.70
2023-04-20T19:10:11.432Z,61.50
2023-04-20T19:12:39.032Z,61.00
2023-04-20T19:15:06.800Z,61.40
2023-04-20T19:17:35.434Z,61.80
2023-04-20T19:20:04.211Z,61.80
2023-04-20T19:22:32.592Z,61.90
2023-04-20T19:25:00.199Z,61.70
2023-04-20T19:27:28.655Z,62.00
2023-04-20T19:29:56.254Z,61.60
2023-04-20T19:32:24.728Z,61.70
2023-04-20T19:34:56.726Z,62.20
2023-04-20T19:37:24.286Z,62.00
2023-04-20T19:39:51.810Z,62.80
2023-04-20T19:42:19.373Z,62.00
2023-04-20T19:44:46.887Z,62.30
2023-04-20T19:47:15.269Z,62.10
2023-04-20T19:49:42.867Z,62.50
2023-04-20T19:52:10.449Z,61.80
2023-04-20T19:54:37.999Z,62.20
2023-04-20T19:57:05.659Z,62.30
2023-04-20T19:59:34.077Z,62.00
2023-04-20T20:02:01.752Z,61.80
2023-04-20T20:04:29.603Z,61.60
2023-04-20T20:06:57.368Z,62.20
2023-04-20T20:09:26.078Z,62.40
2023-04-20T20:11:53.988Z,62.40
2023-04-20T20:14:21.797Z,61.80
2023-04-20T20:16:49.398Z,61.90
2023-04-20T20:19:18.633Z,62.40
2023-04-20T20:21:47.121Z,62.50
2023-04-20T20:24:15.059Z,62.50
2023-04-20T20:26:42.623Z,62.50
2023-04-20T20:29:10.954Z,62.40
2023-04-20T20:31:38.554Z,62.20
2023-04-20T20:34:07.305Z,62.40
2023-04-20T20:36:36.841Z,62.50
2023-04-20T20:39:05.541Z,62.60
2023-04-20T20:41:33.300Z,62.70
2023-04-20T20:44:02.279Z,62.70
2023-04-20T20:46:32.635Z,62.70
2023-04-20T20:49:01.258Z,62.50
2023-04-20T20:51:32.296Z,63.20
2023-04-20T20:54:00.604Z,63.80
2023-04-20T20:56:28.204Z,63.00
2023-04-20T20:58:55.913Z,63.00
2023-04-20T21:01:23.645Z,63.80
2023-04-20T21:03:53.089Z,63.30
2023-04-20T21:06:20.889Z,64.30
2023-04-20T21:08:49.830Z,64.90
2023-04-20T21:11:18.205Z,66.40
2023-04-20T21:13:46.673Z,63.90
2023-04-20T21:16:14.320Z,63.40
2023-04-20T21:18:42.721Z,63.50
2023-04-20T21:21:14.582Z,63.60
2023-04-20T21:23:42.141Z,63.70
2023-04-20T21:26:19.653Z,63.50
2023-04-20T21:28:47.977Z,63.80
2023-04-20T21:31:15.641Z,65.40
2023-04-20T21:33:43.217Z,64.10
2023-04-20T21:36:10.791Z,64.20
2023-04-20T21:38:38.410Z,65.00
2023-04-20T21:41:05.923Z,64.30
2023-04-20T21:43:33.545Z,65.00
2023-04-20T21:46:01.214Z,66.10
2023-04-20T21:48:28.825Z,66.40
2023-04-20T21:50:56.437Z,65.90
2023-04-20T21:53:23.972Z,65.20
2023-04-20T21:55:51.520Z,65.70
2023-04-20T21:58:19.127Z,65.10
2023-04-20T22:00:46.692Z,64.80
2023-04-20T22:03:14.330Z,65.50
2023-04-20T22:05:42.106Z,64.80
2023-04-20T22:08:10.525Z,65.30
2023-04-20T22:10:38.047Z,64.20
2023-04-20T22:13:07.210Z,64.20
2023-04-20T22:15:34.790Z,64.40
2023-04-20T22:18:05.033Z,64.30
2023-04-20T22:20:33.649Z,65.00
2023-04-20T22:23:02.077Z,64.50
2023-04-20T22:25:30.504Z,65.40
2023-04-20T22:27:59.324Z,65.10
2023-04-20T22:30:27.776Z,64.80
2023-04-20T22:32:55.423Z,65.10
2023-04-20T22:35:22.996Z,65.10
2023-04-20T22:37:52.690Z,65.00
2023-04-20T22:40:20.316Z,65.60
2023-04-20T22:42:47.882Z,65.80
2023-04-20T22:45:16.818Z,65.70
2023-04-20T22:47:45.553Z,65.70
2023-04-20T22:50:13.586Z,65.60
2023-04-20T22:52:41.819Z,65.90
2023-04-20T22:55:10.963Z,65.60
2023-04-20T22:57:39.385Z,65.90
2023-04-20T23:00:11.046Z,65.90
2023-04-20T23:02:39.818Z,65.70
2023-04-20T23:05:07.973Z,66.50
2023-04-20T23:07:36.900Z,66.00
2023-04-20T23:10:06.304Z,66.50
2023-04-20T23:12:33.993Z,66.20
2023-04-20T23:15:01.669Z,66.40
2023-04-20T23:17:29.375Z,66.20
2023-04-20T23:19:57.019Z,66.10
2023-04-20T23:22:24.637Z,66.70
2023-04-20T23:24:52.303Z,67.10
2023-04-20T23:27:19.918Z,67.10
2023-04-20T23:29:48.822Z,67.20
2023-04-20T23:32:17.225Z,66.70
2023-04-20T23:34:45.732Z,67.60
2023-04-20T23:37:13.400Z,66.80
2023-04-20T23:39:40.969Z,67.50
2023-04-20T23:42:08.620Z,68.40
2023-04-20T23:44:37.002Z,68.00
2023-04-20T23:47:04.623Z,68.30
2023-04-20T23:49:33.051Z,69.20
2023-04-20T23:52:01.432Z,68.30
2023-04-20T23:54:29.256Z,68.00
2023-04-20T23:56:58.219Z,67.70
2023-04-20T23:59:26.650Z,68.60
